Time;durP1;ratioP1;P1;durP2;ratioP2;P2;SDS_P1;SDS_P2;PMS_P1;PMS_P2;Temp;Humidity;BMP_temperature;BMP_pressure;BME280_temperature;BME280_humidity;BME280_pressure;Samples;Min_cycle;Max_cycle;Signal;HPM_P1;HPM_P2
2021/12/05 00:22:53;;;;;;;4.32;3.80;;;10.30;99.90;;;;;;4981998;28;20473;-71
2021/12/05 00:25:31;;;;;;;4.63;4.13;;;10.40;99.90;;;;;;5006102;28;20261;-74
2021/12/05 00:28:26;;;;;;;3.90;3.50;;;10.40;99.90;;;;;;5005445;28;20673;-75
2021/12/05 00:31:20;;;;;;;6.77;3.80;;;10.40;99.90;;;;;;5004639;28;20569;-83
2021/12/05 01:10:02;;;;;;;4.60;3.50;;;10.40;99.90;;;;;;4999407;28;20496;-74
2021/12/05 01:20:04;;;;;;;5.20;3.77;;;10.40;99.90;;;;;;5010223;28;20569;-80
2021/12/05 01:22:55;;;;;;;4.27;3.73;;;10.40;99.90;;;;;;4969731;28;20481;-73
2021/12/05 01:25:43;;;;;;;4.85;4.35;;;10.50;99.90;;;;;;5008946;28;20484;-78
2021/12/05 01:33:02;;;;;;;4.87;3.27;;;10.40;99.90;;;;;;4985563;28;20525;-74
2021/12/05 01:38:43;;;;;;;4.85;4.28;;;10.40;99.90;;;;;;4972546;28;20459;-72
2021/12/05 01:47:24;;;;;;;4.60;3.90;;;10.50;99.90;;;;;;4986830;28;20547;-73
2021/12/05 01:53:13;;;;;;;4.32;3.92;;;10.50;99.90;;;;;;4981807;28;20459;-73
2021/12/05 02:02:07;;;;;;;6.73;4.47;;;10.60;99.90;;;;;;4936694;29;20230;-74
2021/12/05 02:08:02;;;;;;;4.67;4.30;;;10.60;99.90;;;;;;4990472;28;20230;-77
2021/12/05 02:16:40;;;;;;;4.35;4.00;;;10.50;99.90;;;;;;4984562;28;20226;-72
2021/12/05 02:31:01;;;;;;;4.17;3.87;;;10.60;99.90;;;;;;4982508;28;20929;-77
2021/12/05 02:34:13;;;;;;;5.03;4.57;;;10.60;99.90;;;;;;4984219;28;21070;-75
2021/12/05 02:43:58;;;;;;;5.60;5.03;;;10.60;99.90;;;;;;5000765;28;20462;-75
2021/12/05 02:46:33;;;;;;;4.53;3.80;;;10.60;99.90;;;;;;4982010;28;20459;-76
2021/12/05 02:49:25;;;;;;;7.10;4.17;;;10.60;99.90;;;;;;4993841;28;20505;-75
2021/12/05 02:59:54;;;;;;;3.88;3.58;;;10.50;99.90;;;;;;4922946;28;20446;-76
2021/12/05 03:02:39;;;;;;;4.40;4.00;;;10.60;99.90;;;;;;4997173;28;20219;-72
2021/12/05 03:05:13;;;;;;;4.77;4.37;;;10.60;99.90;;;;;;4996569;28;20494;-73
2021/12/05 03:07:49;;;;;;;3.70;3.37;;;10.60;99.90;;;;;;4993360;28;20462;-70
2021/12/05 03:10:22;;;;;;;4.70;3.73;;;10.60;99.90;;;;;;4982579;28;20463;-74
2021/12/05 03:13:00;;;;;;;4.22;3.80;;;10.60;99.90;;;;;;4997983;28;20965;-76
2021/12/05 03:15:39;;;;;;;4.15;3.75;;;10.60;99.90;;;;;;4982544;28;20274;-71
2021/12/05 03:18:14;;;;;;;4.23;3.63;;;10.50;99.90;;;;;;5000162;28;20274;-73
2021/12/05 03:20:45;;;;;;;6.63;3.83;;;10.50;99.90;;;;;;4988715;28;20872;-71
2021/12/05 03:23:19;;;;;;;4.07;3.75;;;10.50;99.90;;;;;;4988988;28;20463;-75
2021/12/05 03:25:53;;;;;;;4.80;4.20;;;10.50;99.90;;;;;;4991989;28;20214;-74
2021/12/05 03:28:24;;;;;;;4.10;3.80;;;10.50;99.90;;;;;;4990583;28;20991;-74
2021/12/05 03:31:03;;;;;;;5.30;4.32;;;10.50;99.90;;;;;;4993030;28;20508;-74
2021/12/05 03:33:35;;;;;;;4.37;3.97;;;10.50;99.90;;;;;;4990993;28;20261;-71
2021/12/05 03:36:09;;;;;;;6.50;4.50;;;10.50;99.90;;;;;;4998609;28;20541;-72
2021/12/05 03:38:42;;;;;;;5.53;4.13;;;10.60;99.90;;;;;;4988028;28;20465;-76
2021/12/05 03:41:19;;;;;;;3.53;3.23;;;10.60;99.90;;;;;;4990252;28;20980;-79
2021/12/05 03:48:32;;;;;;;6.20;4.17;;;10.60;99.90;;;;;;4975115;28;20457;-79
2021/12/05 03:51:04;;;;;;;3.93;3.20;;;10.60;99.90;;;;;;4989519;28;20467;-72
2021/12/05 03:53:40;;;;;;;3.33;3.03;;;10.60;99.90;;;;;;4994222;28;20550;-70
2021/12/05 03:56:16;;;;;;;4.70;4.30;;;10.60;99.90;;;;;;4988634;28;20242;-70
2021/12/05 03:58:48;;;;;;;3.93;3.63;;;10.60;99.90;;;;;;4986412;28;20822;-73
2021/12/05 04:01:19;;;;;;;3.80;3.50;;;10.70;99.90;;;;;;4988529;28;20813;-70
2021/12/05 04:03:52;;;;;;;5.03;4.10;;;10.70;99.90;;;;;;4995311;28;20463;-72
2021/12/05 04:06:26;;;;;;;3.17;2.97;;;10.70;99.90;;;;;;4999523;28;20473;-73
2021/12/05 04:08:59;;;;;;;4.87;3.90;;;10.80;99.90;;;;;;4993185;28;20489;-71
2021/12/05 04:11:39;;;;;;;4.60;3.90;;;10.70;99.90;;;;;;4987007;28;20901;-78
2021/12/05 04:14:12;;;;;;;3.90;3.60;;;10.70;99.90;;;;;;4984904;28;20545;-74
2021/12/05 04:16:44;;;;;;;4.73;3.70;;;10.70;99.90;;;;;;4985409;28;20466;-76
2021/12/05 04:19:20;;;;;;;3.93;3.63;;;10.70;99.90;;;;;;4985016;28;20833;-72
2021/12/05 04:21:51;;;;;;;4.10;3.10;;;10.60;99.90;;;;;;4986611;28;20490;-72
2021/12/05 04:24:22;;;;;;;2.80;2.60;;;10.70;99.90;;;;;;4986875;28;20466;-75
2021/12/05 04:26:53;;;;;;;3.30;2.97;;;10.70;99.90;;;;;;4999116;28;20245;-73
2021/12/05 04:29:32;;;;;;;3.50;3.20;;;10.70;99.90;;;;;;4992579;28;20963;-74
2021/12/05 04:32:07;;;;;;;3.50;3.20;;;10.60;99.90;;;;;;4987364;28;20498;-73
2021/12/05 04:34:47;;;;;;;4.27;3.87;;;10.70;99.90;;;;;;4981722;28;20501;-73
2021/12/05 04:37:19;;;;;;;4.30;3.60;;;10.70;99.90;;;;;;4991463;28;20564;-77
2021/12/05 04:39:53;;;;;;;4.20;3.90;;;10.70;99.90;;;;;;4996844;28;20466;-82
2021/12/05 04:42:24;;;;;;;4.30;3.63;;;10.60;99.90;;;;;;4988750;28;20466;-75
2021/12/05 04:44:55;;;;;;;55.13;12.53;;;10.70;99.90;;;;;;4988790;28;20544;-72
2021/12/05 04:47:30;;;;;;;758.90;130.87;;;10.70;99.90;;;;;;4989404;28;20534;-74
2021/12/05 04:50:02;;;;;;;3.40;3.20;;;10.70;99.90;;;;;;4993521;28;20490;-76
2021/12/05 04:52:35;;;;;;;3.30;3.10;;;10.70;99.90;;;;;;4993119;28;21351;-73
2021/12/05 04:55:07;;;;;;;4.00;3.70;;;10.70;99.90;;;;;;4987725;28;20542;-73
2021/12/05 04:57:43;;;;;;;4.17;3.80;;;10.70;99.90;;;;;;4992493;28;20573;-72
2021/12/05 05:00:23;;;;;;;3.60;3.20;;;10.70;99.90;;;;;;4997749;28;20926;-74
2021/12/05 05:02:54;;;;;;;2.57;2.37;;;10.70;99.90;;;;;;4998088;28;20477;-77
2021/12/05 05:05:29;;;;;;;2.10;1.23;;;10.60;99.90;;;;;;4997678;28;20489;-73
2021/12/05 05:08:00;;;;;;;0.87;0.87;;;10.40;99.90;;;;;;4990384;28;20469;-72
2021/12/05 05:10:33;;;;;;;1.13;1.00;;;10.30;99.90;;;;;;5003218;28;20508;-70
2021/12/05 05:13:05;;;;;;;0.50;0.50;;;10.30;99.90;;;;;;4996284;28;20234;-71
2021/12/05 05:15:38;;;;;;;2.10;1.17;;;10.10;99.90;;;;;;5005027;28;20477;-71
2021/12/05 05:18:11;;;;;;;1.37;1.30;;;10.00;99.90;;;;;;4995522;28;20239;-70
2021/12/05 05:20:51;;;;;;;1.60;1.38;;;9.90;99.90;;;;;;4997732;28;20464;-73
2021/12/05 05:23:36;;;;;;;1.70;1.60;;;9.70;99.90;;;;;;4992438;28;20322;-74
2021/12/05 05:40:22;;;;;;;2.75;2.55;;;9.30;99.90;;;;;;4993046;28;20219;-77
2021/12/05 05:46:03;;;;;;;2.65;2.45;;;9.20;99.90;;;;;;4990585;28;20342;-76
2021/12/05 05:48:51;;;;;;;2.70;2.50;;;9.10;99.90;;;;;;4989238;28;20306;-74
2021/12/05 05:51:22;;;;;;;2.83;2.63;;;9.10;99.90;;;;;;4989164;28;20776;-73
2021/12/05 05:54:03;;;;;;;5.60;2.70;;;9.10;99.90;;;;;;4989756;28;20900;-74
2021/12/05 05:56:52;;;;;;;2.60;2.40;;;9.00;99.90;;;;;;4950187;28;20224;-74
2021/12/05 05:59:26;;;;;;;3.40;3.10;;;8.90;99.90;;;;;;4995665;28;20307;-73
2021/12/05 06:03:20;;;;;;;3.28;3.00;;;8.80;99.90;;;;;;4990270;28;20229;-77
2021/12/05 06:04:56;;;;;;;3.03;2.65;;;8.90;99.90;;;;;;4998501;28;20228;-75
2021/12/05 06:07:28;;;;;;;3.40;3.10;;;8.90;99.90;;;;;;4978774;28;20318;-71
2021/12/05 06:10:00;;;;;;;3.53;3.33;;;8.80;99.90;;;;;;4985898;28;20267;-72
2021/12/05 06:12:31;;;;;;;3.45;3.15;;;8.80;99.90;;;;;;4998472;28;20262;-73
2021/12/05 06:15:02;;;;;;;3.30;2.97;;;8.70;99.90;;;;;;4985763;28;20214;-72
2021/12/05 06:17:47;;;;;;;3.70;2.70;;;8.70;99.90;;;;;;4993671;28;20837;-74
2021/12/05 06:20:22;;;;;;;3.00;2.80;;;8.70;99.90;;;;;;4988628;28;20253;-74
2021/12/05 06:22:53;;;;;;;3.20;3.00;;;8.70;99.90;;;;;;4989511;28;20489;-73
2021/12/05 06:25:29;;;;;;;3.50;3.30;;;8.80;99.90;;;;;;4993957;28;20249;-72
2021/12/05 06:28:33;;;;;;;2.90;2.70;;;8.60;99.90;;;;;;4999318;28;20231;-72
2021/12/05 06:31:24;;;;;;;3.33;3.13;;;8.60;99.90;;;;;;4994383;28;20251;-73
2021/12/05 06:37:10;;;;;;;3.13;2.92;;;8.40;99.90;;;;;;4999530;28;20216;-71
2021/12/05 06:39:46;;;;;;;3.13;2.92;;;8.30;99.90;;;;;;4999780;28;20235;-76
2021/12/05 06:42:35;;;;;;;2.90;2.70;;;8.30;99.90;;;;;;5005332;28;20229;-71
2021/12/05 06:47:54;;;;;;;2.05;1.95;;;8.20;99.90;;;;;;4995599;28;20219;-71
2021/12/05 06:50:25;;;;;;;3.30;2.38;;;8.10;99.90;;;;;;5005339;28;20234;-75
2021/12/05 06:52:56;;;;;;;2.60;2.30;;;8.10;99.90;;;;;;5008048;28;20294;-77
2021/12/05 06:55:27;;;;;;;2.03;1.80;;;8.00;99.90;;;;;;5000940;28;20582;-72
2021/12/05 06:58:00;;;;;;;2.72;2.53;;;8.10;99.90;;;;;;5006809;28;20223;-73
2021/12/05 07:00:32;;;;;;;2.40;2.25;;;8.00;99.90;;;;;;4997816;28;20244;-72
2021/12/05 07:03:08;;;;;;;2.30;2.15;;;8.00;99.90;;;;;;5005017;28;20218;-72
2021/12/05 07:05:49;;;;;;;2.40;2.20;;;7.90;99.90;;;;;;5007130;28;20222;-72
2021/12/05 07:08:21;;;;;;;2.80;2.50;;;7.90;99.90;;;;;;5007640;28;20267;-72
2021/12/05 07:10:59;;;;;;;5.63;2.20;;;7.80;99.90;;;;;;5005349;28;20219;-72
2021/12/05 07:16:25;;;;;;;2.58;2.22;;;7.90;99.90;;;;;;4997802;28;20211;-76
2021/12/05 07:19:12;;;;;;;2.03;1.92;;;7.90;99.90;;;;;;5002218;28;20245;-73
2021/12/05 07:21:51;;;;;;;2.38;2.13;;;7.80;99.90;;;;;;4999201;28;20302;-72
2021/12/05 07:24:40;;;;;;;2.53;2.33;;;7.80;99.90;;;;;;5005057;28;20635;-71
2021/12/05 07:41:19;;;;;;;4.20;2.55;;;7.80;99.90;;;;;;5005760;28;20760;-71
2021/12/05 07:43:50;;;;;;;2.95;2.75;;;7.70;99.90;;;;;;5006761;28;20264;-75
2021/12/05 07:46:23;;;;;;;2.50;2.30;;;7.70;99.90;;;;;;5002157;28;20215;-71
2021/12/05 07:48:54;;;;;;;2.38;2.17;;;7.70;99.90;;;;;;5007320;28;20219;-72
2021/12/05 07:51:28;;;;;;;3.05;1.90;;;7.60;99.90;;;;;;5008928;28;20314;-71
2021/12/05 07:54:07;;;;;;;1.75;1.65;;;7.50;99.90;;;;;;5004071;28;20219;-76
2021/12/05 07:56:44;;;;;;;2.92;1.80;;;7.40;99.90;;;;;;5002483;28;20253;-74
2021/12/05 07:59:33;;;;;;;1.63;1.40;;;7.20;99.90;;;;;;5000029;28;20237;-73
2021/12/05 08:16:19;;;;;;;1.65;1.55;;;6.60;99.90;;;;;;5007503;28;20215;-69
2021/12/05 08:18:51;;;;;;;2.42;2.20;;;6.50;99.90;;;;;;5004883;28;20676;-69
2021/12/05 08:21:22;;;;;;;1.50;1.40;;;6.40;99.90;;;;;;4997601;28;20261;-69
2021/12/05 08:23:53;;;;;;;1.75;1.55;;;6.30;99.90;;;;;;5004426;28;20219;-69
2021/12/05 08:26:33;;;;;;;1.80;1.70;;;6.20;99.90;;;;;;4995287;28;20223;-69
2021/12/05 08:29:09;;;;;;;1.80;1.70;;;6.20;99.90;;;;;;4997314;28;20238;-72
2021/12/05 08:32:07;;;;;;;1.48;1.38;;;6.10;99.90;;;;;;5006795;28;20333;-71
2021/12/05 08:34:58;;;;;;;2.15;1.30;;;6.10;99.90;;;;;;5004821;28;20219;-71
2021/12/05 08:38:23;;;;;;;2.35;1.10;;;6.10;99.90;;;;;;4999487;28;20231;-72
2021/12/05 08:41:12;;;;;;;1.35;1.25;;;6.10;99.90;;;;;;4997701;28;20223;-69
2021/12/05 08:44:02;;;;;;;1.40;1.30;;;6.00;99.90;;;;;;4997924;28;20223;-71
2021/12/05 09:26:20;;;;;;;2.67;1.67;;;5.30;99.90;;;;;;4995071;28;20215;-71
2021/12/05 09:40:31;;;;;;;1.27;1.17;;;5.10;99.90;;;;;;5002314;28;20215;-71
2021/12/05 10:03:12;;;;;;;1.90;1.80;;;4.50;99.90;;;;;;4976535;28;20227;-70
2021/12/05 10:08:44;;;;;;;4.18;2.28;;;4.40;99.90;;;;;;5001940;28;20215;-72
2021/12/05 10:11:31;;;;;;;1.80;1.70;;;4.40;99.90;;;;;;4999126;28;20573;-70
2021/12/05 10:14:19;;;;;;;2.53;1.67;;;4.30;99.90;;;;;;4996798;28;20572;-71
2021/12/05 10:17:06;;;;;;;2.42;1.63;;;4.30;99.90;;;;;;5009016;28;20211;-71
2021/12/05 10:34:21;;;;;;;3.95;2.28;;;4.10;99.90;;;;;;4957988;28;20283;-71
2021/12/05 10:37:08;;;;;;;1.80;1.70;;;4.10;99.90;;;;;;4989875;28;20704;-71
2021/12/05 10:39:39;;;;;;;2.50;2.22;;;4.10;99.90;;;;;;5006147;28;20608;-72
2021/12/05 10:42:36;;;;;;;2.95;2.25;;;4.10;99.90;;;;;;5004573;28;20215;-77
2021/12/05 10:45:08;;;;;;;2.00;1.90;;;4.00;99.90;;;;;;5007391;28;20227;-72
2021/12/05 10:47:41;;;;;;;2.30;2.10;;;4.00;99.90;;;;;;5005068;28;20302;-72
2021/12/05 10:50:36;;;;;;;1.80;1.70;;;4.00;99.90;;;;;;5006884;28;20219;-72
2021/12/05 10:53:31;;;;;;;2.35;1.90;;;3.90;99.90;;;;;;5005020;28;20258;-73
2021/12/05 10:56:25;;;;;;;3.05;2.50;;;3.90;99.90;;;;;;5007580;28;20223;-71
2021/12/05 10:58:59;;;;;;;2.28;2.08;;;3.90;99.90;;;;;;5004927;28;20227;-72
2021/12/05 11:01:38;;;;;;;2.28;2.00;;;3.80;99.90;;;;;;5006927;28;20277;-71
2021/12/05 11:04:11;;;;;;;3.40;2.53;;;3.80;99.90;;;;;;5006202;28;20780;-71
2021/12/05 11:06:53;;;;;;;2.40;2.20;;;3.70;99.90;;;;;;4999090;28;20302;-73
2021/12/05 11:09:26;;;;;;;2.72;2.30;;;3.70;99.90;;;;;;5005542;28;20253;-71
2021/12/05 11:11:58;;;;;;;2.33;2.05;;;3.70;99.90;;;;;;4998821;28;20232;-70
2021/12/05 11:14:32;;;;;;;2.92;2.45;;;3.70;99.90;;;;;;5009022;28;20223;-71
2021/12/05 11:17:06;;;;;;;2.30;2.20;;;3.60;99.90;;;;;;5010068;28;20261;-71
2021/12/05 11:19:42;;;;;;;2.50;2.03;;;3.60;99.90;;;;;;5008349;28;20227;-71
2021/12/05 11:22:18;;;;;;;2.53;2.17;;;3.60;99.90;;;;;;5004844;28;20211;-74
2021/12/05 11:24:51;;;;;;;2.70;2.50;;;3.50;99.90;;;;;;5000550;28;20222;-71
2021/12/05 11:27:31;;;;;;;4.55;2.55;;;3.40;99.90;;;;;;5003326;28;20618;-75
2021/12/05 11:30:13;;;;;;;2.53;2.33;;;3.50;99.90;;;;;;5006790;28;20218;-71
2021/12/05 11:32:49;;;;;;;2.95;2.75;;;3.40;99.90;;;;;;5001942;28;20237;-70
2021/12/05 11:35:37;;;;;;;2.53;2.33;;;3.30;99.90;;;;;;5004219;28;20240;-71
2021/12/05 11:38:17;;;;;;;4.13;3.28;;;3.30;99.90;;;;;;5006124;28;20286;-71
2021/12/05 11:40:58;;;;;;;4.40;2.85;;;3.20;99.90;;;;;;4997374;28;20218;-71
2021/12/05 11:43:32;;;;;;;2.65;2.45;;;3.20;99.90;;;;;;5005387;28;20302;-73
2021/12/05 11:46:08;;;;;;;2.78;2.58;;;3.20;99.90;;;;;;5005795;28;20254;-73
2021/12/05 11:48:41;;;;;;;2.33;2.22;;;3.20;99.90;;;;;;5000462;28;20245;-73
2021/12/05 11:51:35;;;;;;;3.05;2.85;;;3.20;99.90;;;;;;5007333;28;20227;-71
2021/12/05 11:54:10;;;;;;;2.80;2.60;;;3.30;99.90;;;;;;5005293;28;20285;-71
2021/12/05 11:56:45;;;;;;;4.00;3.17;;;3.40;99.90;;;;;;5006023;28;20237;-72
2021/12/05 11:59:19;;;;;;;3.30;2.90;;;3.40;99.90;;;;;;5007304;28;20287;-72
2021/12/05 12:01:56;;;;;;;2.97;2.70;;;3.40;99.90;;;;;;5005957;28;20246;-74
2021/12/05 12:04:39;;;;;;;4.60;3.60;;;3.40;99.90;;;;;;5004586;28;20633;-71
2021/12/05 12:07:15;;;;;;;4.00;3.15;;;3.30;99.90;;;;;;5002184;28;20223;-72
2021/12/05 12:09:50;;;;;;;4.18;3.70;;;3.20;99.90;;;;;;5008439;28;20599;-71
2021/12/05 12:12:22;;;;;;;4.25;3.88;;;3.20;99.90;;;;;;4991522;28;20686;-70
2021/12/05 12:14:53;;;;;;;5.15;4.13;;;3.20;99.90;;;;;;5005890;28;20238;-73
2021/12/05 12:17:24;;;;;;;4.05;3.28;;;3.20;99.90;;;;;;5007214;28;20218;-74
2021/12/05 12:19:57;;;;;;;3.15;2.65;;;3.10;99.90;;;;;;5008275;28;20281;-70
2021/12/05 12:22:29;;;;;;;4.47;3.60;;;3.00;99.90;;;;;;5004716;28;20234;-70
2021/12/05 12:25:05;;;;;;;2.92;2.70;;;3.00;99.90;;;;;;5005693;28;20237;-72
2021/12/05 12:27:36;;;;;;;4.30;3.70;;;3.00;99.90;;;;;;5000571;28;20219;-70
2021/12/05 12:30:10;;;;;;;3.95;3.55;;;3.00;99.90;;;;;;5005642;28;20214;-70
2021/12/05 12:32:44;;;;;;;3.50;2.90;;;3.00;99.90;;;;;;5001597;28;20242;-70
2021/12/05 12:35:18;;;;;;;5.25;3.50;;;3.00;99.90;;;;;;5008690;28;20297;-70
2021/12/05 12:37:58;;;;;;;3.88;2.83;;;2.90;99.90;;;;;;4997785;28;20294;-70
2021/12/05 12:40:49;;;;;;;5.88;3.33;;;2.80;99.90;;;;;;5004805;28;20314;-72
2021/12/05 12:43:48;;;;;;;3.17;2.70;;;2.80;99.90;;;;;;5003896;28;20215;-71
2021/12/05 12:46:22;;;;;;;5.38;3.10;;;2.80;99.90;;;;;;5005822;28;20223;-73
2021/12/05 12:48:56;;;;;;;2.97;2.67;;;2.80;99.90;;;;;;5005146;28;20285;-71
2021/12/05 12:51:30;;;;;;;4.55;3.20;;;2.70;99.90;;;;;;5008209;28;20219;-72
2021/12/05 12:54:06;;;;;;;2.90;2.63;;;2.60;99.90;;;;;;5007003;28;20290;-72
2021/12/05 12:56:40;;;;;;;3.42;3.10;;;2.60;99.90;;;;;;5006754;28;20238;-72
2021/12/05 12:59:14;;;;;;;4.65;3.50;;;2.50;99.90;;;;;;5003937;28;20293;-73
2021/12/05 13:10:31;;;;;;;2.97;2.67;;;2.60;99.90;;;;;;5005021;28;20219;-71
2021/12/05 13:13:09;;;;;;;4.75;3.10;;;2.60;99.90;;;;;;5006913;28;20227;-71
2021/12/05 13:15:45;;;;;;;5.85;3.45;;;2.50;99.90;;;;;;5002229;28;20215;-75
2021/12/05 13:18:29;;;;;;;4.72;3.53;;;2.50;99.90;;;;;;5009925;28;20226;-71
2021/12/05 13:21:07;;;;;;;3.13;2.83;;;2.50;99.90;;;;;;5009922;28;20418;-71
2021/12/05 13:23:41;;;;;;;4.75;3.10;;;2.50;99.90;;;;;;5008466;28;20561;-71
2021/12/05 13:26:32;;;;;;;4.20;3.20;;;2.40;99.90;;;;;;5008261;28;20320;-76
2021/12/05 13:29:16;;;;;;;6.47;4.05;;;2.40;99.90;;;;;;5010114;28;20223;-71
2021/12/05 13:31:51;;;;;;;3.40;3.10;;;2.40;99.90;;;;;;5005485;28;20681;-71
2021/12/05 13:34:43;;;;;;;3.78;3.25;;;2.30;99.90;;;;;;5009237;28;20234;-71
2021/12/05 13:37:32;;;;;;;3.70;3.38;;;2.30;99.90;;;;;;5008130;28;20239;-70
2021/12/05 13:40:14;;;;;;;4.78;3.47;;;2.40;99.90;;;;;;5010870;28;20357;-71
2021/12/05 13:42:48;;;;;;;5.03;3.88;;;2.30;99.90;;;;;;5001468;28;20297;-70
2021/12/05 13:45:33;;;;;;;3.67;3.38;;;2.20;99.90;;;;;;5009718;28;20222;-69
2021/12/05 13:48:22;;;;;;;4.68;3.80;;;2.30;99.90;;;;;;5007246;28;20226;-69
2021/12/05 13:51:05;;;;;;;6.03;5.13;;;2.20;99.90;;;;;;5007973;28;20225;-71
2021/12/05 13:53:45;;;;;;;5.05;4.10;;;2.10;99.90;;;;;;5007370;28;20246;-69
2021/12/05 13:56:24;;;;;;;5.13;4.10;;;2.10;99.90;;;;;;5006847;28;20562;-70
2021/12/05 13:58:59;;;;;;;4.65;4.20;;;2.20;99.90;;;;;;5007933;28;20234;-76
2021/12/05 14:01:33;;;;;;;5.22;3.95;;;2.20;99.90;;;;;;5005949;28;20215;-69
2021/12/05 14:04:24;;;;;;;4.78;4.28;;;2.10;99.90;;;;;;5000493;28;20215;-71
2021/12/05 14:06:58;;;;;;;4.32;3.92;;;2.10;99.90;;;;;;5001178;28;20249;-70
2021/12/05 14:09:37;;;;;;;4.00;3.55;;;2.00;99.90;;;;;;5008670;28;20219;-69
2021/12/05 14:12:15;;;;;;;4.95;4.10;;;2.00;99.90;;;;;;5009220;28;20215;-72
2021/12/05 14:14:48;;;;;;;5.80;3.75;;;2.00;99.90;;;;;;5002170;28;20712;-71
2021/12/05 14:17:23;;;;;;;3.55;3.13;;;2.00;99.90;;;;;;5009254;28;20226;-71
2021/12/05 14:19:57;;;;;;;6.18;4.35;;;1.90;99.90;;;;;;5006016;28;20215;-71
2021/12/05 14:22:31;;;;;;;5.07;3.95;;;2.00;99.90;;;;;;5007935;28;20222;-71
2021/12/05 14:25:05;;;;;;;4.15;3.75;;;2.00;99.90;;;;;;5009063;28;20299;-70
2021/12/05 14:27:40;;;;;;;4.03;3.67;;;2.00;99.90;;;;;;5005034;28;20218;-72
2021/12/05 14:30:13;;;;;;;4.15;3.50;;;2.00;99.90;;;;;;5007532;28;20645;-72
2021/12/05 14:32:49;;;;;;;8.93;4.13;;;1.90;99.90;;;;;;5006758;28;20238;-70
2021/12/05 14:35:23;;;;;;;4.65;3.63;;;1.90;99.90;;;;;;5009222;28;20230;-70
2021/12/05 14:37:55;;;;;;;5.47;4.35;;;1.80;99.90;;;;;;5004762;28;20227;-70
2021/12/05 14:40:30;;;;;;;7.70;4.07;;;1.70;99.90;;;;;;5010287;28;20296;-70
2021/12/05 14:43:04;;;;;;;6.20;3.90;;;1.80;99.90;;;;;;4995650;28;20226;-69
2021/12/05 14:45:37;;;;;;;5.88;3.97;;;1.70;99.90;;;;;;5011908;28;20215;-70
2021/12/05 14:48:11;;;;;;;4.88;4.00;;;1.70;99.90;;;;;;5003287;28;20334;-69
2021/12/05 14:50:51;;;;;;;5.18;4.05;;;1.70;99.90;;;;;;5008146;28;20322;-69
2021/12/05 14:53:24;;;;;;;6.72;4.50;;;1.80;99.90;;;;;;5008551;28;20214;-76
2021/12/05 14:55:58;;;;;;;5.10;4.53;;;1.80;99.90;;;;;;5006626;28;20342;-70
2021/12/05 14:58:30;;;;;;;4.70;3.85;;;1.90;99.90;;;;;;5006554;28;20229;-69
2021/12/05 15:01:02;;;;;;;8.10;5.40;;;1.80;99.90;;;;;;5002784;28;20229;-71
2021/12/05 15:03:35;;;;;;;6.05;4.80;;;1.80;99.90;;;;;;5005659;28;20222;-76
2021/12/05 15:06:08;;;;;;;6.28;4.88;;;1.80;99.90;;;;;;5006265;28;20225;-69
2021/12/05 15:08:39;;;;;;;5.40;4.90;;;1.70;99.90;;;;;;5008352;28;20223;-70
2021/12/05 15:11:10;;;;;;;7.65;3.67;;;1.60;99.90;;;;;;5006082;28;20219;-70
2021/12/05 15:13:41;;;;;;;5.10;4.60;;;1.60;99.90;;;;;;5002675;28;20208;-71
2021/12/05 15:16:12;;;;;;;5.57;4.43;;;1.60;99.90;;;;;;5006595;28;20245;-71
2021/12/05 15:18:44;;;;;;;8.27;5.43;;;1.60;99.90;;;;;;4999211;28;20561;-72
2021/12/05 15:21:15;;;;;;;6.45;4.75;;;1.70;99.90;;;;;;5005572;28;20224;-69
2021/12/05 15:23:46;;;;;;;6.82;4.90;;;1.70;99.90;;;;;;5008481;28;20215;-72
2021/12/05 15:26:17;;;;;;;7.15;4.90;;;1.70;99.90;;;;;;5000293;28;20219;-75
2021/12/05 15:28:48;;;;;;;6.35;4.72;;;1.80;99.90;;;;;;5006820;28;20223;-69
2021/12/05 15:31:37;;;;;;;5.70;4.88;;;1.80;99.90;;;;;;5004112;28;20337;-69
2021/12/05 15:34:26;;;;;;;5.68;4.70;;;1.70;99.90;;;;;;5004865;28;20247;-69
2021/12/05 15:36:58;;;;;;;8.07;4.72;;;1.70;99.90;;;;;;5005890;28;20584;-71
2021/12/05 15:39:30;;;;;;;5.85;5.30;;;1.60;99.90;;;;;;5007689;28;20597;-70
2021/12/05 15:42:01;;;;;;;5.22;4.30;;;1.50;99.90;;;;;;5007970;28;20299;-69
2021/12/05 15:44:36;;;;;;;5.63;4.63;;;1.60;99.90;;;;;;5009799;28;20656;-69
2021/12/05 15:47:14;;;;;;;7.40;6.65;;;1.60;99.90;;;;;;4999929;28;20246;-69
2021/12/05 15:49:51;;;;;;;9.40;5.93;;;1.60;99.90;;;;;;5002331;28;20214;-71
2021/12/05 15:52:32;;;;;;;6.45;5.40;;;1.60;99.90;;;;;;5006540;28;20223;-70
2021/12/05 15:55:04;;;;;;;6.25;4.30;;;1.70;99.90;;;;;;5005634;28;20301;-72
2021/12/05 15:57:39;;;;;;;6.28;5.10;;;1.70;99.90;;;;;;5006012;28;20665;-69
2021/12/05 16:00:16;;;;;;;6.20;4.60;;;1.60;99.90;;;;;;5005776;28;20225;-72
2021/12/05 16:02:49;;;;;;;5.30;4.35;;;1.50;99.90;;;;;;5006051;28;20230;-70
2021/12/05 16:05:23;;;;;;;100.43;23.95;;;1.60;99.90;;;;;;4996691;28;20214;-70
2021/12/05 16:08:01;;;;;;;6.65;5.30;;;1.70;99.90;;;;;;4986080;28;20222;-69
2021/12/05 16:10:34;;;;;;;1999.90;612.45;;;1.90;99.90;;;;;;5002846;28;20544;-69
2021/12/05 16:13:13;;;;;;;6.82;5.50;;;2.00;99.90;;;;;;5007478;28;20712;-71
2021/12/05 16:15:45;;;;;;;129.57;26.42;;;2.10;99.90;;;;;;5007126;28;20727;-70
2021/12/05 16:18:17;;;;;;;7.93;6.82;;;2.00;99.90;;;;;;5006580;28;20309;-71
2021/12/05 16:20:54;;;;;;;1406.05;260.55;;;1.90;99.90;;;;;;5007686;28;20643;-71
2021/12/05 16:23:26;;;;;;;47.47;14.20;;;2.10;99.90;;;;;;5005711;28;20262;-76
2021/12/05 16:26:09;;;;;;;16.98;9.07;;;2.10;99.90;;;;;;5001229;28;20592;-74
2021/12/05 16:28:42;;;;;;;35.78;10.82;;;2.10;99.90;;;;;;4996229;28;20515;-70
2021/12/05 16:31:18;;;;;;;592.95;98.68;;;2.10;99.90;;;;;;5003754;28;20682;-75
2021/12/05 16:33:54;;;;;;;138.85;27.75;;;2.10;99.90;;;;;;4997828;28;20698;-74
2021/12/05 16:36:31;;;;;;;146.30;31.42;;;2.30;99.90;;;;;;4996064;28;20238;-70
2021/12/05 16:39:10;;;;;;;63.20;15.15;;;2.40;99.90;;;;;;5008617;28;20226;-73
2021/12/05 16:41:45;;;;;;;7.90;7.10;;;2.30;99.90;;;;;;4999722;28;20219;-71
2021/12/05 16:44:20;;;;;;;1355.95;228.68;;;2.40;99.90;;;;;;5005691;28;20219;-73
2021/12/05 16:46:52;;;;;;;98.20;19.48;;;2.60;99.90;;;;;;5019769;28;20327;-70
2021/12/05 16:49:25;;;;;;;1999.90;920.38;;;2.80;99.90;;;;;;5008917;28;20721;-70
2021/12/05 16:51:58;;;;;;;9.27;8.32;;;3.60;99.90;;;;;;5013350;28;20215;-71
2021/12/05 16:54:32;;;;;;;1453.65;315.30;;;4.90;99.90;;;;;;5015094;28;20226;-70
2021/12/05 16:57:10;;;;;;;12.82;10.00;;;6.10;99.90;;;;;;5016025;28;20222;-71
2021/12/05 16:59:43;;;;;;;25.00;10.32;;;7.20;99.90;;;;;;5007387;28;20218;-71
2021/12/05 17:02:18;;;;;;;6.15;5.55;;;7.90;99.90;;;;;;5009834;28;20232;-70
2021/12/05 17:04:59;;;;;;;6.55;5.85;;;8.90;99.90;;;;;;5004965;28;20227;-69
2021/12/05 17:07:47;;;;;;;5.53;4.63;;;9.50;99.90;;;;;;5005820;28;20667;-69
2021/12/05 17:10:35;;;;;;;656.63;141.57;;;9.80;99.90;;;;;;5005889;28;20229;-69
2021/12/05 17:13:19;;;;;;;367.10;76.63;;;10.70;99.90;;;;;;5008829;28;20489;-73
2021/12/05 17:15:54;;;;;;;5.00;4.60;;;11.20;99.90;;;;;;4997032;28;20482;-72
2021/12/05 17:18:27;;;;;;;5.30;4.80;;;10.70;99.90;;;;;;4995622;28;20462;-69
2021/12/05 17:21:00;;;;;;;4.87;4.47;;;10.60;99.90;;;;;;5007230;28;20475;-70
2021/12/05 17:23:35;;;;;;;5.47;4.97;;;10.10;99.90;;;;;;5007595;28;20853;-69
2021/12/05 17:26:15;;;;;;;5.37;4.87;;;9.30;99.90;;;;;;5005231;28;20453;-72
2021/12/05 17:28:48;;;;;;;5.13;4.70;;;8.50;99.90;;;;;;5001545;28;20466;-72
2021/12/05 17:31:26;;;;;;;4.93;4.43;;;7.90;99.90;;;;;;5004966;28;20482;-70
2021/12/05 17:33:59;;;;;;;109.37;18.73;;;7.40;99.90;;;;;;5003672;28;20462;-75
2021/12/05 17:36:33;;;;;;;6.05;4.63;;;7.20;99.90;;;;;;5008138;28;20493;-71
2021/12/05 17:39:09;;;;;;;58.87;13.23;;;7.10;99.90;;;;;;5005503;28;20242;-74
2021/12/05 17:41:42;;;;;;;5.43;4.93;;;6.70;99.90;;;;;;5004747;28;20464;-72
2021/12/05 17:44:16;;;;;;;5.10;4.60;;;6.50;99.90;;;;;;5001625;28;20307;-73
2021/12/05 17:46:49;;;;;;;5.43;4.57;;;6.30;99.90;;;;;;5003746;28;20213;-76
2021/12/05 17:49:49;;;;;;;5.40;4.90;;;6.30;99.90;;;;;;5002751;28;20226;-79
2021/12/05 17:53:14;;;;;;;4.70;4.30;;;6.20;99.90;;;;;;5004937;28;20251;-84
2021/12/05 17:55:48;;;;;;;4.70;4.30;;;6.00;99.90;;;;;;5005064;28;20681;-72
2021/12/05 17:58:39;;;;;;;5.07;4.60;;;6.00;99.90;;;;;;5009577;28;20334;-75
2021/12/05 18:04:07;;;;;;;5.70;5.20;;;5.90;99.90;;;;;;4999811;28;20693;-72
2021/12/05 18:06:38;;;;;;;6.93;5.47;;;6.10;99.90;;;;;;5006106;28;20233;-74
2021/12/05 18:09:09;;;;;;;12.75;7.05;;;6.80;99.90;;;;;;4997226;28;20737;-72
2021/12/05 18:11:42;;;;;;;5.78;4.72;;;7.40;99.90;;;;;;5008781;28;20219;-72
2021/12/05 18:14:13;;;;;;;5.30;4.90;;;7.60;99.90;;;;;;5007272;28;20599;-73
2021/12/05 18:16:44;;;;;;;4.40;3.93;;;8.10;99.90;;;;;;4998771;28;20227;-68
2021/12/05 18:19:18;;;;;;;4.80;4.27;;;8.70;99.90;;;;;;5009327;28;20541;-68
2021/12/05 18:21:51;;;;;;;5.27;4.87;;;9.30;99.90;;;;;;4994446;28;20581;-70
2021/12/05 18:24:23;;;;;;;5.30;4.80;;;9.70;99.90;;;;;;5004600;28;20554;-68
2021/12/05 18:26:58;;;;;;;5.43;4.70;;;10.00;99.90;;;;;;5001718;28;20463;-70
2021/12/05 18:29:29;;;;;;;4.90;4.50;;;10.50;99.90;;;;;;5005765;28;20515;-71